< Cyclone 198110 1981 Season Cyclone 198112 >
Cyclone 198111 (FREDA)
General InformationTrack Information on Google MapsDetailed Wind InformationList of All Images || ResourceGoogle EarthGE AnimationAtom FeedGeoJSON
Detalied Best Track (Time Zone = UTC)
Year Month Day Hour Lat. Long. Pressure (hPa) Wind (kt) Class Image Chart
1981 2 24 18 -14.3 140.6 998 30 2 Image --
1981 2 24 21 -14.3 141.2 998 30 2 Image --
1981 2 25 00 -14.3 141.6 996 30 2 Image --
1981 2 25 03 -14.4 142.2 996 30 2 Image --
1981 2 25 06 -14.5 142.7 996 30 2 Image --
1981 2 25 09 -14.6 143.0 996 30 2 Image --
1981 2 25 12 -14.7 143.4 996 30 2 Image --
1981 2 25 15 -14.8 143.8 996 30 2 Image --
1981 2 25 18 -15.0 144.2 994 30 2 Image --
1981 2 25 21 -15.1 144.6 996 30 2 Image --
1981 2 26 00 -15.2 145.0 996 30 2 Image --
1981 2 26 03 -15.4 145.6 996 30 2 Image --
1981 2 26 06 -15.5 146.3 992 40 3 Image --
1981 2 26 09 -15.6 147.0 992 40 3 Image --
1981 2 26 12 -15.9 147.6 992 40 3 Image --
1981 2 26 15 -16.2 148.1 990 45 3 Image --
1981 2 26 18 -16.6 148.8 988 45 3 Image --
1981 2 26 21 -16.8 149.4 988 45 3 Image --
1981 2 27 00 -17.1 150.0 986 50 4 Image --
1981 2 27 03 -17.6 150.6 984 50 4 Image --
1981 2 27 06 -18.2 151.1 982 55 4 Image --
1981 2 27 09 -18.8 151.8 982 55 4 Image --
1981 2 27 12 -19.2 152.1 982 55 4 Image --
1981 2 27 15 -19.6 152.6 980 55 4 Image --
1981 2 27 18 -19.9 152.8 978 60 4 Image --
1981 2 27 21 -20.2 153.1 978 60 4 Image --
1981 2 28 00 -20.6 153.5 978 60 4 Image --
1981 2 28 03 -20.9 153.8 974 70 5 Image --
1981 2 28 06 -21.1 154.2 974 70 5 Image --
1981 2 28 09 -21.1 154.8 972 70 5 Image --
1981 2 28 12 -21.2 155.2 976 65 5 Image --
1981 2 28 15 -21.4 155.5 978 60 4 Image --
1981 2 28 18 -21.5 155.8 980 60 4 Image --
1981 2 28 21 -21.7 155.9 982 55 4 Image --
1981 3 1 00 -21.9 156.1 982 55 4 Image --
1981 3 1 03 -22.1 156.2 984 50 4 Image --
1981 3 1 06 -22.2 156.4 984 50 4 Image --
1981 3 1 09 -22.1 156.7 984 50 4 Image --
1981 3 1 12 -22.0 157.0 986 50 4 Image --
1981 3 1 15 -21.8 157.2 986 50 4 Image --
1981 3 1 18 -21.5 157.4 986 50 4 Image --
1981 3 1 21 -21.3 157.5 988 50 4 Image --
1981 3 2 00 -20.9 157.6 988 50 4 Image --
1981 3 2 03 -20.7 157.7 988 50 4 Image --
1981 3 2 06 -20.3 157.9 986 50 4 Image --
1981 3 2 09 -20.0 158.1 990 45 3 Image --
1981 3 2 12 -19.7 158.3 990 45 3 Image --
1981 3 2 15 -19.4 158.6 988 45 3 Image --
1981 3 2 18 -19.1 158.8 988 45 3 Image --
1981 3 2 21 -18.9 159.0 988 45 3 Image --
1981 3 3 00 -18.7 159.1 988 45 3 Image --
1981 3 3 03 -18.6 159.4 988 45 3 Image --
1981 3 3 06 -18.4 159.5 988 45 3 Image --
1981 3 3 09 -18.2 159.6 988 45 3 Image --
1981 3 3 12 -18.1 159.7 988 45 3 Image --
1981 3 3 15 -17.9 159.8 988 45 3 Image --
1981 3 3 18 -17.7 159.9 988 45 3 Image --
1981 3 3 21 -17.5 160.2 988 45 3 Image --
1981 3 4 00 -17.4 160.6 988 45 3 Image --
1981 3 4 03 -17.4 161.0 985 50 4 Image --
1981 3 4 06 -17.4 161.2 985 50 4 Image --
1981 3 4 09 -17.4 161.4 985 50 4 Image --
1981 3 4 12 -17.5 161.6 985 50 4 Image --
1981 3 4 15 -17.6 161.8 980 55 4 Image --
1981 3 4 18 -17.7 161.8 978 60 4 Image --
1981 3 4 21 -17.8 161.9 978 60 4 Image --
1981 3 5 00 -17.9 161.9 976 60 4 Image --
1981 3 5 03 -18.0 162.0 974 70 5 Image --
1981 3 5 06 -18.1 162.2 974 70 5 Image --
1981 3 5 09 -18.2 162.4 974 70 5 Image --
1981 3 5 12 -18.3 162.8 974 70 5 Image --
1981 3 5 15 -18.4 162.9 974 70 5 Image --
1981 3 5 18 -18.5 163.0 972 70 5 Image --
1981 3 5 21 -18.8 163.1 964 80 5 Image --
1981 3 6 00 -19.0 163.2 962 80 5 Image --
1981 3 6 03 -19.4 163.4 962 80 5 Image --
1981 3 6 06 -19.7 163.6 962 80 5 Image --
1981 3 6 09 -20.1 163.8 962 80 5 Image --
1981 3 6 12 -20.5 164.1 962 80 5 Image --
1981 3 6 15 -21.2 164.3 966 80 5 Image --
1981 3 6 18 -22.1 164.5 970 70 5 Image --
1981 3 6 21 -22.9 164.9 970 70 5 Image --
1981 3 7 00 -23.9 165.1 975 65 5 Image --
< Cyclone 198110 1981 Season Cyclone 198112 >

Help